Topcliffe, United Kingdom
Current Conditions -  °F | °C
As of 6:50 AM on Sunday 23 Nov 2014 (Local Time) from EGXZ Reporting Station
Light Rain Light Rain  
Wind Chill: 43°   Ceiling: 5000
Heat Index: 43°   Visibility: 3mi
Dew Point: 43°   Wind: 2mph
Humidity: 100%   Direction: 130°SE
Pressure: 30"   Gusts: NA
Location:  54.2°N, 1.38°W
Report Text: EGXZ 230650Z AUTO 13002KT 5000 -RA BKN050/// 06/06 Q1016
Loading
Personal Weather Stations






























Interactive Weather Map New forecast layout! Learn more

10-Day Weather Forecast

Advertisements
Track Severe Weather on mobile